Louisville, NE (68037)

11:42 AM CDT on March 29, 2017 (GMT -0500)
Southridge | | Change Station

Elev 1083 ft 40.99 °N, 96.15 °W | Updated 15 seconds ago

Rain
Rain
43.4 °F
Feels Like 40 °F
N
6.0
Wind Variable Wind from NE
Gusts 6.0 mph

Today
High -- | Low -- °F
--% Chance of Precip.
Yesterday
High -- | Low -- °F
Precip. -- in
Pressure 29.91 in
Visibility 5.0 miles
Clouds Overcast 700 ft
Windchill 40 °F
Dew Point 41 °F
Humidity 92%
Rainfall 0.17 in
Snow Depth Not available.
7:12 AM 7:46 PM
Waxing Crescent, 3% visible
METAR KPMV 291635Z AUTO 04018G23KT 5SM -RA OVC007 06/05 A2991 RMK AO2 P0004 T00620045
Pressure 29.91 in
Visibility 5.0 miles
Clouds Overcast 700 ft
Windchill 40 °F
Dew Point 41 °F
Humidity 92%
Rainfall 0.17 in
Snow Depth Not available.
7:12 AM 7:46 PM
Waxing Crescent, 3% visible
METAR KPMV 291635Z AUTO 04018G23KT 5SM -RA OVC007 06/05 A2991 RMK AO2 P0004 T00620045

Get Severe Weather Alerts

Thanks for signing up!

Be on the lookout for a verification email in your inbox.

You'll start receiving the daily forecast at 8 AM.

×

10-Day Weather Forecast

Almanac

Astronomy

Mar. 29, 2017 Rise Set
Actual Time
Civil Twilight
Nautical Twilight
Astronomical Twilight
Moon
Length of Visible Light
Length of Day
Tomorrow will be .
, % of the Moon is Illuminated

Today's Extremes

State Highs State Lows

Community

WunderPhotos

Upload Photos

1,962,540 photos uploaded!

WunderBlog® & News

Nearby

Air Quality

  Air Quality AQ Index Pollutant
Not available.

Snow Depth

Station Depth Elevation

Earthquake Activity

City Distance Mag. Time & Date
Minimum magnitude displayed is 2.5.

Earthquake Activity

City Distance Mag. Time & Date
Minimum magnitude displayed is 2.5.

Coastal Water Temperatures

Place Temperature

Stations

Nearby Weather Stations

Station Location Temp. Windchill Dew Point Humidity Wind Precip. Elev Updated Type
                   

Watches & Warnings

There are currently no watches in effect.